Terminal Aerodrome Forecast
Issued by NWS

Home | Current Version | Previous Version | Graphics & Text | Print | Product List | Glossary On
Versions: 1 2 3 4 5 6 7 8 9 10 11 12 13 14
677
FTUS43 KBIS 201128
TAFMOT
TAF
KMOT 201128Z 2012/2112 24007KT P6SM OVC100
     FM201800 31012KT P6SM SCT110
     FM210600 36009KT P6SM SCT200=

USA.gov is the U.S. government's official web portal to all federal, state and local government web resources and services.